createdAt,value
2023-04-27T00:01:09.911Z,8.83
2023-04-27T00:04:43.095Z,10.20
2023-04-27T00:08:15.337Z,8.75
2023-04-27T00:11:47.362Z,10.13
2023-04-27T00:15:19.292Z,9.40
2023-04-27T00:18:52.237Z,9.23
2023-04-27T00:22:24.455Z,11.13
2023-04-27T00:25:56.311Z,8.38
2023-04-27T00:29:28.342Z,11.35
2023-04-27T00:33:00.300Z,8.98
2023-04-27T00:36:34.961Z,10.93
2023-04-27T00:40:07.988Z,7.28
2023-04-27T00:43:44.852Z,8.35
2023-04-27T00:47:17.542Z,11.20
2023-04-27T00:50:49.778Z,8.27
2023-04-27T00:54:22.807Z,9.10
2023-04-27T00:57:54.570Z,13.67
2023-04-27T01:01:26.957Z,13.05
2023-04-27T01:04:59.009Z,9.07
2023-04-27T01:08:31.114Z,7.95
2023-04-27T01:12:03.623Z,10.73
2023-04-27T01:15:35.843Z,7.80
2023-04-27T01:19:09.155Z,10.35
2023-04-27T01:22:41.362Z,15.43
2023-04-27T01:26:16.295Z,11.15
2023-04-27T01:29:48.254Z,9.75
2023-04-27T01:33:20.263Z,11.47
2023-04-27T01:36:52.391Z,8.65
2023-04-27T01:40:24.110Z,7.80
2023-04-27T01:43:56.171Z,9.02
2023-04-27T01:47:28.196Z,6.03
2023-04-27T01:50:59.968Z,7.65
2023-04-27T01:54:32.135Z,10.00
2023-04-27T01:58:04.390Z,10.97
2023-04-27T02:01:36.384Z,9.18
2023-04-27T02:05:08.663Z,7.75
2023-04-27T02:08:40.476Z,8.85
2023-04-27T02:12:12.484Z,8.33
2023-04-27T02:15:44.239Z,10.05
2023-04-27T02:19:16.830Z,7.25
2023-04-27T02:22:48.800Z,7.10
2023-04-27T02:26:22.303Z,10.52
2023-04-27T02:29:54.188Z,8.65
2023-04-27T02:33:26.938Z,7.43
2023-04-27T02:36:58.915Z,8.18
2023-04-27T02:40:30.897Z,10.13
2023-04-27T02:44:02.683Z,8.57
2023-04-27T02:47:35.167Z,11.83
2023-04-27T02:51:07.057Z,10.00
2023-04-27T02:54:39.377Z,8.73
2023-04-27T02:58:11.287Z,7.80
2023-04-27T03:01:43.410Z,11.93
2023-04-27T03:05:15.360Z,10.25
2023-04-27T03:08:47.389Z,8.52
2023-04-27T03:12:19.230Z,10.40
2023-04-27T03:15:51.261Z,11.68
2023-04-27T03:19:23.817Z,9.38
2023-04-27T03:22:55.512Z,10.33
2023-04-27T03:26:27.751Z,9.90
2023-04-27T03:29:59.469Z,9.65
2023-04-27T03:33:31.641Z,7.10
2023-04-27T03:37:03.492Z,7.88
2023-04-27T03:40:35.527Z,8.43
2023-04-27T03:44:07.523Z,8.02
2023-04-27T03:47:39.480Z,8.27
2023-04-27T03:51:11.510Z,7.55
2023-04-27T03:54:43.250Z,7.93
2023-04-27T03:58:17.351Z,9.73
2023-04-27T04:01:49.158Z,11.02
2023-04-27T04:05:21.780Z,8.05
2023-04-27T04:08:54.161Z,8.97
2023-04-27T04:12:26.404Z,7.28
2023-04-27T04:16:06.417Z,9.85
2023-04-27T04:19:38.968Z,8.77
2023-04-27T04:23:12.142Z,11.67
2023-04-27T04:26:44.597Z,7.57
2023-04-27T04:30:17.021Z,8.45
2023-04-27T04:33:49.356Z,8.43
2023-04-27T04:37:21.873Z,9.00
2023-04-27T04:40:53.917Z,8.77
2023-04-27T04:44:27.086Z,10.63
2023-04-27T04:48:01.111Z,8.15
2023-04-27T04:51:33.448Z,9.52
2023-04-27T04:55:06.477Z,11.93
2023-04-27T04:58:38.872Z,9.17
2023-04-27T05:02:11.046Z,7.88
2023-04-27T05:05:42.810Z,7.07
2023-04-27T05:09:15.132Z,6.97
2023-04-27T05:12:47.378Z,8.48
2023-04-27T05:16:19.568Z,11.43
2023-04-27T05:19:51.343Z,17.07
2023-04-27T05:23:23.505Z,6.57
2023-04-27T05:26:55.435Z,8.48
2023-04-27T05:30:27.422Z,11.18
2023-04-27T05:34:00.384Z,7.73
2023-04-27T05:37:32.784Z,7.32
2023-04-27T05:41:04.896Z,8.98
2023-04-27T05:44:36.757Z,8.77
2023-04-27T05:48:08.937Z,8.25
2023-04-27T05:51:50.114Z,7.53
2023-04-27T05:55:22.455Z,6.72
2023-04-27T05:58:54.195Z,9.57
2023-04-27T06:02:26.545Z,6.93
2023-04-27T06:06:00.531Z,8.35
2023-04-27T06:09:32.570Z,7.23
2023-04-27T06:13:04.891Z,6.80
2023-04-27T06:16:36.641Z,6.78
2023-04-27T06:20:09.403Z,8.82
2023-04-27T06:23:41.338Z,6.83
2023-04-27T06:27:13.748Z,6.88
2023-04-27T06:30:45.702Z,9.48
2023-04-27T06:34:17.461Z,9.60
2023-04-27T06:37:49.658Z,12.45
2023-04-27T06:41:21.386Z,7.07
2023-04-27T06:44:56.501Z,7.00
2023-04-27T06:48:28.379Z,5.37
2023-04-27T06:52:02.901Z,7.22
2023-04-27T06:55:35.191Z,8.07
2023-04-27T06:59:08.276Z,6.60
2023-04-27T07:02:40.153Z,8.18
2023-04-27T07:06:12.572Z,9.52
2023-04-27T07:09:44.798Z,7.75
2023-04-27T07:13:17.375Z,9.93
2023-04-27T07:16:49.448Z,4.57
2023-04-27T07:20:21.677Z,9.93
2023-04-27T07:23:54.389Z,5.80
2023-04-27T07:27:27.860Z,6.57
2023-04-27T07:30:59.738Z,5.85
2023-04-27T07:34:41.169Z,3.33
2023-04-27T07:38:21.895Z,8.83
2023-04-27T07:41:54.427Z,4.70
2023-04-27T07:45:37.304Z,6.95
2023-04-27T07:49:09.518Z,6.13
2023-04-27T07:52:41.254Z,8.50
2023-04-27T07:56:13.309Z,6.57
2023-04-27T07:59:46.041Z,3.78
2023-04-27T08:03:18.033Z,7.03
2023-04-27T08:06:50.797Z,8.63
2023-04-27T08:10:23.994Z,6.45
2023-04-27T08:13:56.148Z,6.85
2023-04-27T08:17:28.063Z,4.77
2023-04-27T08:21:00.485Z,3.90
2023-04-27T08:24:32.485Z,6.93
2023-04-27T08:28:04.526Z,7.38
2023-04-27T08:31:36.627Z,6.87
2023-04-27T08:35:09.128Z,5.57
2023-04-27T08:38:41.104Z,3.33
2023-04-27T08:42:14.406Z,4.07
2023-04-27T08:45:49.076Z,8.33
2023-04-27T08:49:21.962Z,2.73
2023-04-27T08:52:54.199Z,10.82
2023-04-27T08:56:30.972Z,7.43
2023-04-27T09:00:11.726Z,4.90
2023-04-27T09:03:46.833Z,5.85
2023-04-27T09:07:18.758Z,4.40
2023-04-27T09:10:51.800Z,3.38
2023-04-27T09:14:24.029Z,2.97
2023-04-27T09:17:57.058Z,5.80
2023-04-27T09:21:31.068Z,4.28
2023-04-27T09:25:04.179Z,4.40
2023-04-27T09:28:39.055Z,6.10
2023-04-27T09:32:18.314Z,3.88
2023-04-27T09:35:51.017Z,3.05
2023-04-27T09:39:23.258Z,6.77
2023-04-27T09:42:57.101Z,4.27
2023-04-27T09:46:29.823Z,3.33
2023-04-27T09:50:04.500Z,3.10
2023-04-27T09:53:51.535Z,3.93
2023-04-27T09:57:46.920Z,5.18
2023-04-27T10:01:29.259Z,6.05
2023-04-27T10:05:16.026Z,4.75
2023-04-27T10:08:51.099Z,3.50
2023-04-27T10:12:27.339Z,4.60
2023-04-27T10:16:15.688Z,6.28
2023-04-27T10:20:01.786Z,4.73
2023-04-27T10:23:33.886Z,4.13
2023-04-27T10:27:12.158Z,3.15
2023-04-27T10:30:47.230Z,6.90
2023-04-27T10:34:21.676Z,3.83
2023-04-27T10:37:53.514Z,7.73
2023-04-27T10:41:34.705Z,5.03
2023-04-27T10:45:07.371Z,3.95
2023-04-27T10:48:40.827Z,2.90
2023-04-27T10:52:13.432Z,3.80
2023-04-27T10:55:45.425Z,3.42
2023-04-27T10:59:17.655Z,3.72
2023-04-27T11:02:50.156Z,2.47
2023-04-27T11:06:21.979Z,2.58
2023-04-27T11:09:54.100Z,2.67
2023-04-27T11:13:28.774Z,2.63
2023-04-27T11:17:01.070Z,2.60
2023-04-27T11:20:32.938Z,4.60
2023-04-27T11:24:10.071Z,2.33
2023-04-27T11:27:42.204Z,3.90
2023-04-27T11:31:14.065Z,2.30
2023-04-27T11:34:50.822Z,5.28
2023-04-27T11:38:23.080Z,6.05
2023-04-27T11:41:55.410Z,2.93
2023-04-27T11:45:30.060Z,4.22
2023-04-27T11:49:04.656Z,5.30
2023-04-27T11:52:39.117Z,2.35
2023-04-27T11:56:11.384Z,6.40
2023-04-27T11:59:43.203Z,2.75
2023-04-27T12:03:15.516Z,1.60
2023-04-27T12:06:48.371Z,4.13
2023-04-27T12:10:20.136Z,2.43
2023-04-27T12:13:52.600Z,2.53
2023-04-27T12:17:24.514Z,7.97
2023-04-27T12:20:56.975Z,4.70
2023-04-27T12:24:29.389Z,2.47
2023-04-27T12:28:01.329Z,3.22
2023-04-27T12:31:33.979Z,3.10
2023-04-27T12:35:07.425Z,2.10
2023-04-27T12:38:39.446Z,3.53
2023-04-27T12:42:11.353Z,8.00
2023-04-27T12:45:43.392Z,3.33
2023-04-27T12:49:15.128Z,3.13
2023-04-27T12:52:48.409Z,3.57
2023-04-27T12:56:20.349Z,3.78
2023-04-27T12:59:52.596Z,2.28
2023-04-27T13:03:24.949Z,3.03
2023-04-27T13:07:01.576Z,3.03
2023-04-27T13:10:33.374Z,3.58
2023-04-27T13:14:05.971Z,3.10
2023-04-27T13:17:38.022Z,4.37
2023-04-27T13:21:10.120Z,3.97
2023-04-27T13:24:43.184Z,3.08
2023-04-27T13:28:14.915Z,3.25
2023-04-27T13:31:46.967Z,6.57
2023-04-27T13:35:19.756Z,2.67
2023-04-27T13:38:51.917Z,4.88
2023-04-27T13:42:29.500Z,9.88
2023-04-27T13:46:02.519Z,6.00
2023-04-27T13:49:34.555Z,3.40
2023-04-27T13:53:06.381Z,7.65
2023-04-27T13:56:38.484Z,2.78
2023-04-27T14:00:11.496Z,2.00
2023-04-27T14:03:43.883Z,2.53
2023-04-27T14:07:16.731Z,6.38
2023-04-27T14:10:49.058Z,5.60
2023-04-27T14:14:21.470Z,5.60
2023-04-27T14:17:53.707Z,2.87
2023-04-27T14:21:26.153Z,2.03
2023-04-27T14:24:58.345Z,2.65
2023-04-27T14:28:30.184Z,2.20
2023-04-27T14:32:03.198Z,2.90
2023-04-27T14:35:35.577Z,3.05
2023-04-27T14:39:10.606Z,4.50
2023-04-27T14:42:42.303Z,3.33
2023-04-27T14:46:21.610Z,2.20
2023-04-27T14:50:06.836Z,6.45
2023-04-27T14:53:42.058Z,3.72
2023-04-27T14:57:14.073Z,4.83
2023-04-27T15:00:46.163Z,2.87
2023-04-27T15:04:18.207Z,4.28
2023-04-27T15:08:02.337Z,5.00
2023-04-27T15:11:43.287Z,4.93
2023-04-27T15:15:20.354Z,5.43
2023-04-27T15:19:12.920Z,2.50
2023-04-27T15:22:45.333Z,5.05
2023-04-27T15:26:17.127Z,3.13
2023-04-27T15:29:49.791Z,3.50
2023-04-27T15:33:21.781Z,3.85
2023-04-27T15:36:53.946Z,1.92
2023-04-27T15:40:25.926Z,4.17
2023-04-27T15:43:57.766Z,6.67
2023-04-27T15:47:29.986Z,3.50
2023-04-27T15:51:02.962Z,4.75
2023-04-27T15:54:35.049Z,5.83
2023-04-27T15:58:07.086Z,5.07
2023-04-27T16:01:39.207Z,4.93
2023-04-27T16:05:11.412Z,5.20
2023-04-27T16:08:43.140Z,3.40
2023-04-27T16:12:15.889Z,4.40
2023-04-27T16:15:47.609Z,5.03
2023-04-27T16:19:19.781Z,5.15
2023-04-27T16:22:51.828Z,4.10
2023-04-27T16:26:26.002Z,3.73
2023-04-27T16:29:59.562Z,7.97
2023-04-27T16:33:31.878Z,4.45
2023-04-27T16:37:04.033Z,3.30
2023-04-27T16:40:35.956Z,6.23
2023-04-27T16:44:08.025Z,6.40
2023-04-27T16:47:39.921Z,4.75
2023-04-27T16:51:12.028Z,6.43
2023-04-27T16:54:43.982Z,7.27
2023-04-27T16:58:16.294Z,7.88
2023-04-27T17:01:48.425Z,4.88
2023-04-27T17:05:20.584Z,5.07
2023-04-27T17:08:53.037Z,3.90
2023-04-27T17:12:24.791Z,8.30
2023-04-27T17:15:56.860Z,5.43
2023-04-27T17:19:30.968Z,6.30
2023-04-27T17:23:03.393Z,6.30
2023-04-27T17:26:35.410Z,3.83
2023-04-27T17:30:08.349Z,5.05
2023-04-27T17:33:40.401Z,5.30
2023-04-27T17:37:14.777Z,6.45
2023-04-27T17:40:46.934Z,4.25
2023-04-27T17:44:18.783Z,3.97
2023-04-27T17:47:50.859Z,5.63
2023-04-27T17:51:23.112Z,4.45
2023-04-27T17:54:58.449Z,4.15
2023-04-27T17:58:32.418Z,3.53
2023-04-27T18:02:04.683Z,3.85
2023-04-27T18:05:36.487Z,5.35
2023-04-27T18:09:09.005Z,8.93
2023-04-27T18:12:40.979Z,6.00
2023-04-27T18:16:15.670Z,8.30
2023-04-27T18:19:49.910Z,4.50
2023-04-27T18:23:25.458Z,10.47
2023-04-27T18:26:57.877Z,8.52
2023-04-27T18:30:30.799Z,6.40
2023-04-27T18:34:03.126Z,6.93
2023-04-27T18:37:34.864Z,8.03
2023-04-27T18:41:07.603Z,8.70
2023-04-27T18:44:39.366Z,12.05
2023-04-27T18:48:11.574Z,9.67
2023-04-27T18:51:43.676Z,8.45
2023-04-27T18:55:16.873Z,4.70
2023-04-27T18:58:49.315Z,6.97
2023-04-27T19:02:21.198Z,6.38
2023-04-27T19:05:53.299Z,6.68
2023-04-27T19:09:25.421Z,7.38
2023-04-27T19:12:57.811Z,8.27
2023-04-27T19:16:30.007Z,8.77
2023-04-27T19:20:02.120Z,10.88
2023-04-27T19:23:34.191Z,8.97
2023-04-27T19:27:05.944Z,8.27
2023-04-27T19:30:38.128Z,6.70
2023-04-27T19:34:10.355Z,6.73
2023-04-27T19:37:42.057Z,8.65
2023-04-27T19:41:14.321Z,9.10
2023-04-27T19:44:46.304Z,10.07
2023-04-27T19:48:18.295Z,7.00
2023-04-27T19:51:50.422Z,7.43
2023-04-27T19:55:22.372Z,8.32
2023-04-27T19:58:54.443Z,15.17
2023-04-27T20:02:26.332Z,10.02
2023-04-27T20:05:58.928Z,12.45
2023-04-27T20:09:31.271Z,9.23
2023-04-27T20:13:05.229Z,9.07
2023-04-27T20:16:37.266Z,8.93
2023-04-27T20:20:11.117Z,9.80
2023-04-27T20:23:43.134Z,10.50
2023-04-27T20:27:15.158Z,11.02
2023-04-27T20:30:46.841Z,13.45
2023-04-27T20:34:18.859Z,13.17
2023-04-27T20:37:50.634Z,17.65
2023-04-27T20:41:23.644Z,16.23
2023-04-27T20:44:57.685Z,18.83
2023-04-27T20:48:29.680Z,15.25
2023-04-27T20:52:01.960Z,14.60
2023-04-27T20:55:34.452Z,12.68
2023-04-27T20:59:07.846Z,15.33
2023-04-27T21:02:40.302Z,16.95
2023-04-27T21:06:12.317Z,15.20
2023-04-27T21:09:44.301Z,18.13
2023-04-27T21:13:16.240Z,19.08
2023-04-27T21:16:48.399Z,17.08
2023-04-27T21:20:20.959Z,15.80
2023-04-27T21:24:04.144Z,16.42
2023-04-27T21:27:36.584Z,14.95
2023-04-27T21:31:08.864Z,16.58
2023-04-27T21:34:41.052Z,11.70
2023-04-27T21:38:12.798Z,13.73
2023-04-27T21:41:44.825Z,17.35
2023-04-27T21:45:18.057Z,16.07
2023-04-27T21:48:53.183Z,19.45
2023-04-27T21:52:26.038Z,27.58
2023-04-27T21:55:58.463Z,26.23
2023-04-27T21:59:30.826Z,25.25
2023-04-27T22:03:03.807Z,26.45
2023-04-27T22:06:35.959Z,19.20
2023-04-27T22:10:08.346Z,23.90
2023-04-27T22:13:40.149Z,24.65
2023-04-27T22:17:12.681Z,26.15
2023-04-27T22:20:44.684Z,19.57
2023-04-27T22:24:18.985Z,28.38
2023-04-27T22:27:51.590Z,24.13
2023-04-27T22:31:23.823Z,25.63
2023-04-27T22:34:57.713Z,25.10
2023-04-27T22:38:29.869Z,23.23
2023-04-27T22:42:02.029Z,18.48
2023-04-27T22:45:34.519Z,16.77
2023-04-27T22:49:08.058Z,21.98
2023-04-27T22:52:42.934Z,15.80
2023-04-27T22:56:15.043Z,16.03
2023-04-27T22:59:49.714Z,25.17
2023-04-27T23:03:21.981Z,19.55
2023-04-27T23:06:54.291Z,20.37
2023-04-27T23:10:26.923Z,24.20
2023-04-27T23:13:58.939Z,26.45
2023-04-27T23:17:31.346Z,30.52
2023-04-27T23:21:04.921Z,20.67
2023-04-27T23:24:36.917Z,20.20
2023-04-27T23:28:08.814Z,19.77
2023-04-27T23:31:41.409Z,22.77
2023-04-27T23:35:13.446Z,20.30
2023-04-27T23:38:45.193Z,29.13
2023-04-27T23:42:17.491Z,23.67
2023-04-27T23:45:51.433Z,21.25
2023-04-27T23:49:23.975Z,24.33
2023-04-27T23:52:55.680Z,20.85
2023-04-27T23:56:28.008Z,23.47
